KGIF/GIF METAR and TAF weather

Enter ICAO airport designator
Station Type Date Time Source
KGIF METAR 2021/05/14 07:18 UTC NOAA

KGIF 140718Z AUTO 36010KT 10SM SCT017 19/16 A3010 RMK AO2 T01940161


Station Type Date Time Source
KGIF Decoded METAR 2021/05/14 07:18 UTC NOAA

WINTER HAVENS GILBERT AIRPORT , FL, United States (KGIF) 28-04N 81-45W 43M
May 14, 2021 - 03:18 AM EDT / 2021.05.14 0718 UTC
Wind: from the N (360 degrees) at 12 MPH (10 KT):0
Visibility: 10 mile(s):0
Sky conditions: partly cloudy
Temperature: 66.9 F (19.4 C)
Dew Point: 61.0 F (16.1 C)
Relative Humidity: 81%
Pressure (altimeter): 30.1 in. Hg (1019 hPa)
ob: KGIF 140718Z AUTO 36010KT 10SM SCT017 19/16 A3010 RMK AO2 T01940161
cycle: 7

Station Type Date Time Source
KGIF TAF UTC NOAA

Error!

Example: see airport list